Time;durP1;ratioP1;P1;durP2;ratioP2;P2;SDS_P1;SDS_P2;PMS_P1;PMS_P2;Temp;Humidity;BMP_temperature;BMP_pressure;BME280_temperature;BME280_humidity;BME280_pressure;Samples;Min_cycle;Max_cycle;Signal;HPM_P1;HPM_P2
2022/07/19 00:02:04;;;;;;;7.13;4.32;;;24.60;85.10;;;;;;4987762;28;20042;-74
2022/07/19 00:04:31;;;;;;;6.55;4.10;;;24.70;84.80;;;;;;4991169;28;20030;-74
2022/07/19 00:06:57;;;;;;;6.57;4.35;;;24.60;85.10;;;;;;4994920;28;20034;-73
2022/07/19 00:09:23;;;;;;;6.13;4.28;;;24.80;84.80;;;;;;4991938;28;20098;-73
2022/07/19 00:11:49;;;;;;;7.95;4.55;;;24.90;84.60;;;;;;4993751;28;20034;-74
2022/07/19 00:14:15;;;;;;;6.05;3.75;;;24.80;84.60;;;;;;4993318;28;20416;-74
2022/07/19 00:16:41;;;;;;;9.00;4.03;;;24.70;84.90;;;;;;4992543;28;20038;-74
2022/07/19 00:19:06;;;;;;;6.53;4.07;;;24.60;85.20;;;;;;4991224;28;20030;-73
2022/07/19 00:21:32;;;;;;;7.32;4.05;;;24.60;85.20;;;;;;4989309;28;20109;-73
2022/07/19 00:24:00;;;;;;;7.57;4.57;;;24.60;84.90;;;;;;4992808;28;20030;-73
2022/07/19 00:26:26;;;;;;;5.63;4.22;;;24.50;84.90;;;;;;4994661;28;20038;-73
2022/07/19 00:28:54;;;;;;;5.35;3.85;;;24.50;85.20;;;;;;4993040;28;20089;-74
2022/07/19 00:31:21;;;;;;;7.45;4.07;;;24.50;85.50;;;;;;4991096;28;20385;-73
2022/07/19 00:33:46;;;;;;;8.18;4.82;;;24.50;85.60;;;;;;4993239;28;20030;-74
2022/07/19 00:36:12;;;;;;;6.72;4.18;;;24.70;85.40;;;;;;4992443;28;20045;-73
2022/07/19 00:38:38;;;;;;;5.63;3.90;;;24.60;85.40;;;;;;4992919;28;20494;-73
2022/07/19 00:41:04;;;;;;;5.63;3.72;;;24.60;85.30;;;;;;4991550;28;20031;-74
2022/07/19 00:43:30;;;;;;;6.35;3.97;;;24.40;85.40;;;;;;4994123;28;20037;-73
2022/07/19 00:45:56;;;;;;;6.13;3.90;;;24.40;85.90;;;;;;4989538;28;20041;-74
2022/07/19 00:48:22;;;;;;;5.88;3.83;;;24.20;86.10;;;;;;4992901;28;20092;-73
2022/07/19 00:50:48;;;;;;;7.03;4.78;;;24.20;86.10;;;;;;4989013;28;20030;-73
2022/07/19 00:53:15;;;;;;;8.98;5.18;;;23.90;86.70;;;;;;4992345;28;20050;-73
2022/07/19 00:55:43;;;;;;;6.55;4.00;;;23.90;86.80;;;;;;4987000;28;20030;-73
2022/07/19 00:58:10;;;;;;;9.40;4.28;;;24.00;86.60;;;;;;4992957;28;20400;-74
2022/07/19 01:00:38;;;;;;;8.45;4.65;;;23.90;86.80;;;;;;4990078;28;20030;-74
2022/07/19 01:03:05;;;;;;;8.57;4.55;;;23.90;86.90;;;;;;4992095;28;20092;-73
2022/07/19 01:05:31;;;;;;;7.10;4.55;;;23.90;87.50;;;;;;4991888;28;20042;-73
2022/07/19 01:07:57;;;;;;;6.68;3.95;;;24.10;86.70;;;;;;4991675;28;20117;-73
2022/07/19 01:10:22;;;;;;;6.85;4.30;;;24.10;86.50;;;;;;4990706;28;20026;-73
2022/07/19 01:12:48;;;;;;;6.22;4.30;;;24.20;86.50;;;;;;4988888;28;20030;-73
2022/07/19 01:15:20;;;;;;;7.30;4.60;;;24.30;86.40;;;;;;4990715;28;20026;-73
2022/07/19 01:17:48;;;;;;;6.63;4.65;;;24.40;86.20;;;;;;4987444;28;20031;-73
2022/07/19 01:20:14;;;;;;;7.05;4.93;;;24.40;86.30;;;;;;4991348;28;20027;-73
2022/07/19 01:22:42;;;;;;;8.00;5.18;;;24.40;86.10;;;;;;4992481;28;20133;-73
2022/07/19 01:25:08;;;;;;;6.57;4.32;;;24.50;86.20;;;;;;4989081;28;20034;-74
2022/07/19 01:27:45;;;;;;;6.72;4.10;;;24.40;86.10;;;;;;4990782;28;20045;-74
2022/07/19 01:30:22;;;;;;;8.38;5.13;;;24.40;86.10;;;;;;4989484;28;20393;-73
2022/07/19 01:32:49;;;;;;;5.68;4.10;;;24.50;86.00;;;;;;4992341;28;20024;-73
2022/07/19 01:35:15;;;;;;;6.70;4.65;;;24.50;86.10;;;;;;4989755;28;20031;-74
2022/07/19 01:37:41;;;;;;;6.43;4.22;;;24.50;86.10;;;;;;4990656;28;20037;-74
2022/07/19 01:40:10;;;;;;;8.63;4.97;;;24.40;86.30;;;;;;4991208;28;20037;-74
2022/07/19 01:42:36;;;;;;;9.73;4.47;;;24.40;86.50;;;;;;4992294;28;20035;-73
2022/07/19 01:45:03;;;;;;;8.18;4.18;;;24.30;86.50;;;;;;4990959;28;20125;-74
2022/07/19 01:47:30;;;;;;;6.70;4.90;;;24.10;86.80;;;;;;4988902;28;20121;-73
2022/07/19 01:49:55;;;;;;;6.20;4.28;;;24.20;86.60;;;;;;4973568;28;20392;-74
2022/07/19 01:52:21;;;;;;;8.27;4.47;;;24.20;86.50;;;;;;4992621;28;20034;-74
2022/07/19 01:54:47;;;;;;;9.13;4.55;;;24.30;86.60;;;;;;4990612;28;20073;-74
2022/07/19 01:57:13;;;;;;;7.95;4.57;;;24.30;86.50;;;;;;4990335;28;20527;-74
2022/07/19 01:59:39;;;;;;;8.73;4.75;;;24.20;86.50;;;;;;4989535;28;20031;-73
2022/07/19 02:02:06;;;;;;;9.90;4.25;;;24.20;86.40;;;;;;4991508;28;20030;-74
2022/07/19 02:04:31;;;;;;;6.85;4.40;;;24.30;86.30;;;;;;4990207;28;20117;-74
2022/07/19 02:06:57;;;;;;;8.27;4.32;;;24.40;86.00;;;;;;4990456;28;20496;-74
2022/07/19 02:09:23;;;;;;;6.43;4.28;;;24.30;86.10;;;;;;4989192;28;20476;-74
2022/07/19 02:11:49;;;;;;;6.00;4.00;;;24.30;86.40;;;;;;4991149;28;20030;-73
2022/07/19 02:14:15;;;;;;;6.47;4.20;;;24.00;86.90;;;;;;4992415;28;20113;-73
2022/07/19 02:16:40;;;;;;;6.28;4.13;;;23.90;87.00;;;;;;4988801;28;20066;-73
2022/07/19 02:19:07;;;;;;;7.25;4.35;;;24.00;86.80;;;;;;4989345;28;20039;-73
2022/07/19 02:21:35;;;;;;;8.40;4.18;;;24.30;85.80;;;;;;4985819;28;20034;-74
2022/07/19 02:24:01;;;;;;;5.80;3.70;;;24.10;86.10;;;;;;4990997;28;20066;-73
2022/07/19 02:26:27;;;;;;;6.05;3.60;;;23.90;86.70;;;;;;4990030;28;20034;-73
2022/07/19 02:28:53;;;;;;;6.20;3.47;;;23.70;86.80;;;;;;4991855;28;20049;-74
2022/07/19 02:31:19;;;;;;;7.35;4.20;;;23.60;87.20;;;;;;4983191;28;20379;-74
2022/07/19 02:33:45;;;;;;;5.85;3.78;;;23.60;87.00;;;;;;4991076;28;20034;-73
2022/07/19 02:36:10;;;;;;;5.60;3.95;;;23.70;86.80;;;;;;4987795;28;20039;-74
2022/07/19 02:38:36;;;;;;;6.72;4.32;;;23.70;86.60;;;;;;4987281;28;20076;-73
2022/07/19 02:41:02;;;;;;;6.60;4.13;;;23.70;86.80;;;;;;4990842;28;20106;-73
2022/07/19 02:43:28;;;;;;;10.48;3.83;;;23.70;87.00;;;;;;4995347;28;20038;-73
2022/07/19 02:45:53;;;;;;;5.47;4.07;;;23.70;87.10;;;;;;4993746;28;20066;-73
2022/07/19 02:48:19;;;;;;;10.55;4.47;;;23.70;87.10;;;;;;4994022;28;20085;-73
2022/07/19 02:50:45;;;;;;;6.38;4.20;;;23.70;87.20;;;;;;4995889;28;20699;-73
2022/07/19 02:53:11;;;;;;;9.43;4.35;;;23.70;87.60;;;;;;4994608;28;20058;-74
2022/07/19 02:55:36;;;;;;;6.45;4.55;;;23.60;87.80;;;;;;4993907;28;20438;-73
2022/07/19 02:58:03;;;;;;;7.03;4.22;;;23.60;88.00;;;;;;4984271;28;20034;-73
2022/07/19 03:00:28;;;;;;;7.38;4.25;;;23.60;88.10;;;;;;4989541;28;20030;-72
2022/07/19 03:02:54;;;;;;;8.77;4.32;;;23.60;88.10;;;;;;4988783;28;20034;-71
2022/07/19 03:05:20;;;;;;;7.97;4.00;;;23.60;88.10;;;;;;4991064;28;20083;-72
2022/07/19 03:07:46;;;;;;;7.05;3.88;;;23.60;88.00;;;;;;4988050;28;20125;-72
2022/07/19 03:10:11;;;;;;;5.45;3.80;;;23.60;88.10;;;;;;4984337;28;20113;-72
2022/07/19 03:12:37;;;;;;;8.70;4.38;;;23.50;88.20;;;;;;4986831;28;20041;-72
2022/07/19 03:15:04;;;;;;;7.72;4.35;;;23.60;88.00;;;;;;4989880;28;20034;-72
2022/07/19 03:17:30;;;;;;;9.80;4.65;;;23.60;88.20;;;;;;4985903;28;20049;-73
2022/07/19 03:19:55;;;;;;;6.00;4.10;;;23.60;88.20;;;;;;4985075;28;20476;-72
2022/07/19 03:22:21;;;;;;;8.25;4.55;;;23.60;88.20;;;;;;4986249;28;20034;-72
2022/07/19 03:24:47;;;;;;;9.18;4.38;;;23.50;88.30;;;;;;4990745;28;20038;-72
2022/07/19 03:27:12;;;;;;;6.47;4.00;;;23.60;87.90;;;;;;4986164;28;20039;-73
2022/07/19 03:29:38;;;;;;;5.43;3.90;;;23.50;87.90;;;;;;4988957;28;20042;-72
2022/07/19 03:32:04;;;;;;;7.13;4.45;;;23.60;87.80;;;;;;4990174;28;20033;-72
2022/07/19 03:34:30;;;;;;;9.30;4.80;;;23.60;87.80;;;;;;4990761;28;20065;-72
2022/07/19 03:36:55;;;;;;;8.07;4.15;;;23.50;87.80;;;;;;4989460;28;20035;-71
2022/07/19 03:39:21;;;;;;;6.88;4.25;;;23.60;87.80;;;;;;4989990;28;20030;-72
2022/07/19 03:41:47;;;;;;;5.53;4.05;;;23.60;87.80;;;;;;4988141;28;20065;-72
2022/07/19 03:44:13;;;;;;;7.13;4.32;;;23.50;87.90;;;;;;4987739;28;20389;-72
2022/07/19 03:46:38;;;;;;;9.80;5.22;;;23.50;88.00;;;;;;4986049;28;20369;-72
2022/07/19 03:49:04;;;;;;;7.65;4.53;;;23.50;88.10;;;;;;4987385;28;20038;-72
2022/07/19 03:51:30;;;;;;;5.88;4.45;;;23.50;88.00;;;;;;4988032;28;20065;-72
2022/07/19 03:53:56;;;;;;;7.80;3.97;;;23.50;88.00;;;;;;4989649;28;20053;-72
2022/07/19 03:56:21;;;;;;;6.45;4.07;;;23.50;87.70;;;;;;4971334;28;20551;-71
2022/07/19 03:58:50;;;;;;;7.32;4.40;;;23.50;87.90;;;;;;4982828;28;20118;-71
2022/07/19 04:01:16;;;;;;;9.00;3.97;;;23.50;87.90;;;;;;4984196;28;20033;-72
2022/07/19 04:03:42;;;;;;;8.82;5.00;;;23.40;87.90;;;;;;4981031;28;20164;-71
2022/07/19 04:06:10;;;;;;;11.30;4.30;;;23.40;88.10;;;;;;4985622;28;20082;-72
2022/07/19 04:08:36;;;;;;;8.80;4.50;;;23.30;88.20;;;;;;4985816;28;20072;-72
2022/07/19 04:11:03;;;;;;;5.75;4.00;;;23.40;88.10;;;;;;4985663;28;20101;-72
2022/07/19 04:13:31;;;;;;;6.05;4.28;;;23.50;87.90;;;;;;4986386;28;20026;-71
2022/07/19 04:15:57;;;;;;;9.75;4.47;;;23.60;87.80;;;;;;4987181;28;20061;-72
2022/07/19 04:18:22;;;;;;;5.80;4.20;;;23.60;87.60;;;;;;4984511;28;20112;-72
2022/07/19 04:20:48;;;;;;;7.65;4.72;;;23.60;87.70;;;;;;4984116;28;20371;-71
2022/07/19 04:23:14;;;;;;;8.35;5.10;;;23.70;87.60;;;;;;4986060;28;20030;-72
2022/07/19 04:25:39;;;;;;;7.93;4.15;;;23.90;87.60;;;;;;4983399;28;20536;-71
2022/07/19 04:28:07;;;;;;;5.53;4.07;;;23.90;86.60;;;;;;4969196;28;20781;-72
2022/07/19 04:30:33;;;;;;;5.80;4.05;;;23.90;86.70;;;;;;4981364;28;20026;-72
2022/07/19 04:32:58;;;;;;;6.82;4.10;;;24.00;86.50;;;;;;4984879;28;20031;-71
2022/07/19 04:35:24;;;;;;;6.00;4.20;;;23.90;86.60;;;;;;4986571;28;20034;-72
2022/07/19 04:37:50;;;;;;;9.73;4.07;;;23.80;86.70;;;;;;4982615;28;20529;-71
2022/07/19 04:40:15;;;;;;;6.38;4.05;;;23.50;87.40;;;;;;4984677;28;20643;-72
2022/07/19 04:42:41;;;;;;;7.45;4.68;;;23.60;87.50;;;;;;4984707;28;20612;-72
2022/07/19 04:45:07;;;;;;;6.90;4.20;;;23.70;87.30;;;;;;4985404;28;20121;-72
2022/07/19 04:47:32;;;;;;;6.28;3.95;;;23.80;87.50;;;;;;4985350;28;20083;-71
2022/07/19 04:49:58;;;;;;;8.88;4.43;;;23.70;87.70;;;;;;4977495;28;20512;-72
2022/07/19 04:52:24;;;;;;;6.45;4.25;;;23.70;87.40;;;;;;4986042;28;20500;-72
2022/07/19 04:54:49;;;;;;;6.38;3.83;;;23.70;87.80;;;;;;4983757;28;20046;-72
2022/07/19 04:57:15;;;;;;;9.18;4.22;;;23.60;87.90;;;;;;4984805;28;20783;-72
2022/07/19 04:59:41;;;;;;;6.85;4.13;;;23.70;87.70;;;;;;4985255;28;20037;-73
2022/07/19 05:02:07;;;;;;;5.78;3.95;;;23.60;87.90;;;;;;4985645;28;20034;-71
2022/07/19 05:04:33;;;;;;;8.48;4.32;;;23.60;88.00;;;;;;4980214;28;20050;-72
2022/07/19 05:06:59;;;;;;;7.00;4.15;;;23.60;87.90;;;;;;4986065;28;20114;-72
2022/07/19 05:09:25;;;;;;;7.15;4.63;;;23.60;88.10;;;;;;4984631;28;20530;-72
2022/07/19 05:11:52;;;;;;;5.93;4.53;;;23.60;88.00;;;;;;4979103;28;20026;-71
2022/07/19 05:14:19;;;;;;;6.38;4.35;;;23.70;87.90;;;;;;4983617;28;20030;-72
2022/07/19 05:16:45;;;;;;;7.88;4.32;;;23.70;87.90;;;;;;4985874;28;20061;-72
2022/07/19 05:19:10;;;;;;;6.00;3.83;;;23.70;88.50;;;;;;4983764;28;20169;-72
2022/07/19 05:21:36;;;;;;;7.82;4.38;;;23.80;88.70;;;;;;4983896;28;20084;-72
2022/07/19 05:24:02;;;;;;;6.05;4.47;;;23.80;89.70;;;;;;4984568;28;20046;-72
2022/07/19 05:26:28;;;;;;;7.28;4.55;;;23.90;89.80;;;;;;4986865;28;20037;-74
2022/07/19 05:28:54;;;;;;;9.30;4.55;;;24.00;90.10;;;;;;4984677;28;20113;-73
2022/07/19 05:31:19;;;;;;;11.68;4.22;;;24.00;90.10;;;;;;4984418;28;20117;-73
2022/07/19 05:33:45;;;;;;;7.32;4.18;;;24.10;89.40;;;;;;4984747;28;20535;-73
2022/07/19 05:36:11;;;;;;;20.88;5.63;;;24.20;88.80;;;;;;4978530;28;20085;-73
2022/07/19 05:38:40;;;;;;;10.05;4.50;;;24.20;89.20;;;;;;4984390;28;20125;-73
2022/07/19 05:41:07;;;;;;;10.70;4.93;;;24.20;89.30;;;;;;4987062;28;20030;-73
2022/07/19 05:43:34;;;;;;;8.68;4.60;;;24.20;90.40;;;;;;4988920;28;20463;-73
2022/07/19 05:46:00;;;;;;;8.60;5.18;;;24.10;90.40;;;;;;4983130;28;20030;-72
2022/07/19 05:48:26;;;;;;;6.68;4.93;;;24.10;90.60;;;;;;4985194;28;20104;-72
2022/07/19 05:50:52;;;;;;;6.65;4.60;;;24.10;90.70;;;;;;4984003;28;20049;-72
2022/07/19 05:53:18;;;;;;;12.40;4.90;;;24.10;91.00;;;;;;4982666;28;20050;-72
2022/07/19 05:55:44;;;;;;;6.35;4.88;;;24.00;91.00;;;;;;4984770;28;20023;-72
2022/07/19 05:58:10;;;;;;;9.05;4.65;;;24.10;91.60;;;;;;4985055;28;20435;-72
2022/07/19 06:00:36;;;;;;;6.88;4.35;;;24.20;91.30;;;;;;4984469;28;20030;-71
2022/07/19 06:03:01;;;;;;;6.95;5.18;;;24.20;91.60;;;;;;4981097;28;20381;-72
2022/07/19 06:05:27;;;;;;;8.13;4.78;;;24.20;92.00;;;;;;4985047;28;20069;-72
2022/07/19 06:07:53;;;;;;;7.70;5.03;;;24.20;92.00;;;;;;4983168;28;20031;-72
2022/07/19 06:10:19;;;;;;;7.90;4.75;;;24.00;91.40;;;;;;4984936;28;20031;-72
2022/07/19 06:12:44;;;;;;;7.45;4.78;;;24.10;90.90;;;;;;4983853;28;20527;-72
2022/07/19 06:15:10;;;;;;;7.30;4.60;;;23.80;92.00;;;;;;4984700;28;20046;-71
2022/07/19 06:17:36;;;;;;;8.45;5.35;;;23.70;92.00;;;;;;4980316;28;20034;-71
2022/07/19 06:20:02;;;;;;;7.00;4.97;;;24.00;91.80;;;;;;4982145;28;20042;-72
2022/07/19 06:22:31;;;;;;;8.15;4.95;;;24.20;91.60;;;;;;4984166;28;20034;-71
2022/07/19 06:24:57;;;;;;;7.05;4.88;;;24.30;91.80;;;;;;4984877;28;20042;-72
2022/07/19 06:27:23;;;;;;;8.80;5.63;;;24.40;91.40;;;;;;4984719;28;20057;-72
2022/07/19 06:29:49;;;;;;;8.18;5.63;;;24.50;91.50;;;;;;4984171;28;20042;-72
2022/07/19 06:32:14;;;;;;;6.93;5.15;;;24.50;91.30;;;;;;4984294;28;20070;-71
2022/07/19 06:34:40;;;;;;;8.88;5.30;;;24.60;90.90;;;;;;4982385;28;20031;-72
2022/07/19 06:37:06;;;;;;;9.90;5.30;;;24.50;90.50;;;;;;4977350;28;20034;-72
2022/07/19 06:39:31;;;;;;;10.52;5.38;;;24.60;90.40;;;;;;4982377;28;20038;-71
2022/07/19 06:41:57;;;;;;;9.63;6.32;;;24.80;91.00;;;;;;4983878;28;20042;-71
2022/07/19 06:44:23;;;;;;;9.50;5.85;;;24.90;90.50;;;;;;4983807;28;20066;-72
2022/07/19 06:46:48;;;;;;;10.35;5.68;;;25.00;90.90;;;;;;4984153;28;20042;-72
2022/07/19 06:49:14;;;;;;;10.48;5.85;;;25.10;90.80;;;;;;4983960;28;20713;-72
2022/07/19 06:51:40;;;;;;;22.73;6.82;;;25.20;90.60;;;;;;4983587;28;20100;-71
2022/07/19 06:54:06;;;;;;;8.40;5.63;;;25.40;90.10;;;;;;4980350;28;20081;-72
2022/07/19 06:56:31;;;;;;;8.82;5.40;;;25.40;89.70;;;;;;4984531;28;20113;-71
2022/07/19 06:58:57;;;;;;;9.73;5.78;;;25.50;89.50;;;;;;4983333;28;20072;-72
2022/07/19 07:01:22;;;;;;;8.88;5.63;;;25.50;89.00;;;;;;4984646;28;20041;-72
2022/07/19 07:03:49;;;;;;;9.05;5.50;;;25.60;89.20;;;;;;4985250;28;20623;-72
2022/07/19 07:06:15;;;;;;;120.35;15.25;;;25.80;89.00;;;;;;4983713;28;20045;-72
2022/07/19 07:08:41;;;;;;;35.53;9.68;;;26.00;88.50;;;;;;4984047;28;20415;-72
2022/07/19 07:11:07;;;;;;;11.57;5.90;;;26.10;87.70;;;;;;4982429;28;20034;-72
2022/07/19 07:13:32;;;;;;;9.27;5.28;;;26.30;87.30;;;;;;4983908;28;20427;-72
2022/07/19 07:15:58;;;;;;;9.82;5.57;;;26.50;86.50;;;;;;4984657;28;20030;-74
2022/07/19 07:18:24;;;;;;;8.48;5.10;;;26.70;85.80;;;;;;4984819;28;20038;-73
2022/07/19 07:20:49;;;;;;;7.95;5.55;;;27.00;86.40;;;;;;4983907;28;20133;-72
2022/07/19 07:23:15;;;;;;;13.20;6.18;;;27.20;85.40;;;;;;4984780;28;20085;-72
2022/07/19 07:25:40;;;;;;;9.05;4.97;;;27.50;85.60;;;;;;4984614;28;20042;-72
2022/07/19 07:28:06;;;;;;;8.35;5.68;;;27.60;84.70;;;;;;4979774;28;20037;-72
2022/07/19 07:30:32;;;;;;;7.20;5.18;;;27.70;84.50;;;;;;4987471;28;20034;-72
2022/07/19 07:32:57;;;;;;;17.42;5.63;;;28.50;84.20;;;;;;4987595;28;20030;-72
2022/07/19 07:35:23;;;;;;;7.32;5.72;;;29.30;83.40;;;;;;4988405;28;20118;-71
2022/07/19 07:37:49;;;;;;;7.78;5.15;;;30.00;81.30;;;;;;4970702;28;20105;-72
2022/07/19 07:40:14;;;;;;;10.82;5.40;;;30.60;79.50;;;;;;4988779;28;20053;-75
2022/07/19 07:42:40;;;;;;;7.25;5.45;;;31.40;78.50;;;;;;4987439;28;20062;-76
2022/07/19 07:45:09;;;;;;;8.90;5.75;;;32.30;77.40;;;;;;4986925;28;20389;-73
2022/07/19 07:47:35;;;;;;;7.60;5.50;;;32.90;76.40;;;;;;4987852;28;20070;-72
2022/07/19 07:50:01;;;;;;;8.48;5.20;;;33.30;75.10;;;;;;4988404;28;20096;-71
2022/07/19 07:52:26;;;;;;;8.40;6.03;;;33.00;75.60;;;;;;4987404;28;20042;-72
2022/07/19 07:54:52;;;;;;;9.52;5.13;;;33.10;75.20;;;;;;4987689;28;20050;-70
2022/07/19 07:57:18;;;;;;;7.85;5.43;;;33.20;74.90;;;;;;4987445;28;20046;-72
2022/07/19 07:59:44;;;;;;;9.70;5.55;;;33.60;74.50;;;;;;4985098;28;20361;-72
2022/07/19 08:02:09;;;;;;;8.65;5.13;;;33.60;74.30;;;;;;4981129;28;20041;-73
2022/07/19 08:04:35;;;;;;;8.35;4.78;;;33.20;75.20;;;;;;4987247;28;20558;-72
2022/07/19 08:07:01;;;;;;;9.05;5.63;;;32.90;75.10;;;;;;4988042;28;21137;-73
2022/07/19 08:09:26;;;;;;;6.82;4.78;;;31.60;77.00;;;;;;4987392;28;20038;-72
2022/07/19 08:11:52;;;;;;;9.40;5.90;;;31.30;78.00;;;;;;4987137;28;20038;-73
2022/07/19 08:14:18;;;;;;;8.60;5.18;;;31.10;77.40;;;;;;4987167;28;20038;-74
2022/07/19 08:16:43;;;;;;;9.55;5.10;;;31.30;76.40;;;;;;4987136;28;20042;-73
2022/07/19 08:19:09;;;;;;;8.32;5.72;;;30.80;76.90;;;;;;4986625;28;20030;-73
2022/07/19 08:21:35;;;;;;;9.80;5.50;;;30.30;77.90;;;;;;4987300;28;20038;-74
2022/07/19 08:24:00;;;;;;;7.20;5.55;;;30.70;78.50;;;;;;4987189;28;20496;-74
2022/07/19 08:26:26;;;;;;;9.98;5.80;;;30.50;79.10;;;;;;4986662;28;20034;-74
2022/07/19 08:28:52;;;;;;;12.60;6.30;;;30.00;80.20;;;;;;4986402;28;20541;-73
2022/07/19 08:31:18;;;;;;;9.50;5.22;;;30.30;80.60;;;;;;4986934;28;20034;-75
2022/07/19 08:33:44;;;;;;;8.35;6.00;;;30.20;79.70;;;;;;4987186;28;20034;-76
2022/07/19 08:36:10;;;;;;;9.68;6.18;;;30.20;79.20;;;;;;4986524;28;20034;-73
2022/07/19 08:38:38;;;;;;;21.45;6.57;;;30.10;79.20;;;;;;4987058;28;20543;-73
2022/07/19 08:41:05;;;;;;;10.40;6.57;;;30.30;80.40;;;;;;4986101;28;20440;-75
2022/07/19 08:43:31;;;;;;;9.30;6.38;;;30.30;80.20;;;;;;4986985;28;20045;-76
2022/07/19 08:46:01;;;;;;;10.13;6.00;;;30.10;80.30;;;;;;4987618;28;20042;-75
2022/07/19 08:48:31;;;;;;;7.70;5.93;;;30.40;79.80;;;;;;4989710;28;20030;-75
